sensor_id;sensor_type;location;lat;lon;timestamp;temperature;humidity
7934;DHT22;4012;48.896;9.192;2023-04-01T00:00:53;9.60;99.90
7934;DHT22;4012;48.896;9.192;2023-04-01T00:03:20;9.60;99.90
7934;DHT22;4012;48.896;9.192;2023-04-01T00:05:46;9.60;99.90
7934;DHT22;4012;48.896;9.192;2023-04-01T00:08:11;9.60;99.90
7934;DHT22;4012;48.896;9.192;2023-04-01T00:10:37;9.60;99.90
7934;DHT22;4012;48.896;9.192;2023-04-01T00:13:03;9.60;99.90
7934;DHT22;4012;48.896;9.192;2023-04-01T00:15:29;9.60;99.90
7934;DHT22;4012;48.896;9.192;2023-04-01T00:17:54;9.60;99.90
7934;DHT22;4012;48.896;9.192;2023-04-01T00:20:20;9.60;99.90
7934;DHT22;4012;48.896;9.192;2023-04-01T00:22:46;9.60;99.90
7934;DHT22;4012;48.896;9.192;2023-04-01T00:25:12;9.60;99.90
7934;DHT22;4012;48.896;9.192;2023-04-01T00:27:37;9.70;99.90
7934;DHT22;4012;48.896;9.192;2023-04-01T00:30:03;9.70;99.90
7934;DHT22;4012;48.896;9.192;2023-04-01T00:32:29;9.60;99.90
7934;DHT22;4012;48.896;9.192;2023-04-01T00:34:55;9.70;99.90
7934;DHT22;4012;48.896;9.192;2023-04-01T00:37:21;9.70;99.90
7934;DHT22;4012;48.896;9.192;2023-04-01T00:39:48;9.70;99.90
7934;DHT22;4012;48.896;9.192;2023-04-01T00:42:14;9.70;99.90
7934;DHT22;4012;48.896;9.192;2023-04-01T00:44:40;9.70;99.90
7934;DHT22;4012;48.896;9.192;2023-04-01T00:47:06;9.70;99.90
7934;DHT22;4012;48.896;9.192;2023-04-01T00:49:39;9.70;99.90
7934;DHT22;4012;48.896;9.192;2023-04-01T00:52:07;9.70;99.90
7934;DHT22;4012;48.896;9.192;2023-04-01T00:54:34;9.70;99.90
7934;DHT22;4012;48.896;9.192;2023-04-01T00:57:24;9.70;99.90
7934;DHT22;4012;48.896;9.192;2023-04-01T00:59:54;9.70;99.90
7934;DHT22;4012;48.896;9.192;2023-04-01T01:02:20;9.80;99.90
7934;DHT22;4012;48.896;9.192;2023-04-01T01:04:47;9.80;99.90
7934;DHT22;4012;48.896;9.192;2023-04-01T01:07:20;9.80;99.90
7934;DHT22;4012;48.896;9.192;2023-04-01T01:17:44;9.80;99.90
7934;DHT22;4012;48.896;9.192;2023-04-01T01:36:17;10.00;99.90
7934;DHT22;4012;48.896;9.192;2023-04-01T01:38:45;9.90;99.90
7934;DHT22;4012;48.896;9.192;2023-04-01T01:41:12;9.90;99.90
7934;DHT22;4012;48.896;9.192;2023-04-01T01:43:43;9.90;99.90
7934;DHT22;4012;48.896;9.192;2023-04-01T01:46:13;9.90;99.90
7934;DHT22;4012;48.896;9.192;2023-04-01T01:48:41;9.90;99.90
7934;DHT22;4012;48.896;9.192;2023-04-01T01:51:08;9.90;99.90
7934;DHT22;4012;48.896;9.192;2023-04-01T01:53:34;9.90;99.90
7934;DHT22;4012;48.896;9.192;2023-04-01T01:56:00;10.00;99.90
7934;DHT22;4012;48.896;9.192;2023-04-01T01:58:34;10.00;99.90
7934;DHT22;4012;48.896;9.192;2023-04-01T02:01:09;9.90;99.90
7934;DHT22;4012;48.896;9.192;2023-04-01T02:03:39;9.90;99.90
7934;DHT22;4012;48.896;9.192;2023-04-01T02:06:17;10.00;99.90
7934;DHT22;4012;48.896;9.192;2023-04-01T02:08:55;9.90;99.90
7934;DHT22;4012;48.896;9.192;2023-04-01T02:16:38;9.80;99.90
7934;DHT22;4012;48.896;9.192;2023-04-01T02:19:06;9.80;99.90
7934;DHT22;4012;48.896;9.192;2023-04-01T02:21:33;9.80;99.90
7934;DHT22;4012;48.896;9.192;2023-04-01T02:24:03;9.70;99.90
7934;DHT22;4012;48.896;9.192;2023-04-01T02:26:30;9.70;99.90
7934;DHT22;4012;48.896;9.192;2023-04-01T02:28:56;9.60;99.90
7934;DHT22;4012;48.896;9.192;2023-04-01T02:31:23;9.60;99.90
7934;DHT22;4012;48.896;9.192;2023-04-01T02:33:49;9.60;99.90
7934;DHT22;4012;48.896;9.192;2023-04-01T02:36:16;9.60;99.90
7934;DHT22;4012;48.896;9.192;2023-04-01T02:38:43;9.60;99.90
7934;DHT22;4012;48.896;9.192;2023-04-01T02:41:10;9.60;99.90
7934;DHT22;4012;48.896;9.192;2023-04-01T02:43:35;9.60;99.90
7934;DHT22;4012;48.896;9.192;2023-04-01T02:46:01;9.60;99.90
7934;DHT22;4012;48.896;9.192;2023-04-01T02:48:27;9.60;99.90
7934;DHT22;4012;48.896;9.192;2023-04-01T02:50:53;9.60;99.90
7934;DHT22;4012;48.896;9.192;2023-04-01T02:53:19;9.60;99.90
7934;DHT22;4012;48.896;9.192;2023-04-01T02:55:45;9.60;99.90
7934;DHT22;4012;48.896;9.192;2023-04-01T02:58:11;9.60;99.90
7934;DHT22;4012;48.896;9.192;2023-04-01T03:00:37;9.60;99.90
7934;DHT22;4012;48.896;9.192;2023-04-01T03:03:03;9.70;99.90
7934;DHT22;4012;48.896;9.192;2023-04-01T03:05:29;9.60;99.90
7934;DHT22;4012;48.896;9.192;2023-04-01T03:07:55;9.60;99.90
7934;DHT22;4012;48.896;9.192;2023-04-01T03:10:21;9.60;99.90
7934;DHT22;4012;48.896;9.192;2023-04-01T03:12:47;9.50;99.90
7934;DHT22;4012;48.896;9.192;2023-04-01T03:15:13;9.50;99.90
7934;DHT22;4012;48.896;9.192;2023-04-01T03:17:40;9.50;99.90
7934;DHT22;4012;48.896;9.192;2023-04-01T03:20:07;9.60;99.90
7934;DHT22;4012;48.896;9.192;2023-04-01T03:22:34;9.60;99.90
7934;DHT22;4012;48.896;9.192;2023-04-01T03:25:01;9.60;99.90
7934;DHT22;4012;48.896;9.192;2023-04-01T03:27:26;9.50;99.90
7934;DHT22;4012;48.896;9.192;2023-04-01T03:29:52;9.50;99.90
7934;DHT22;4012;48.896;9.192;2023-04-01T03:32:17;9.50;99.90
7934;DHT22;4012;48.896;9.192;2023-04-01T03:34:43;9.40;99.90
7934;DHT22;4012;48.896;9.192;2023-04-01T03:37:09;9.50;99.90
7934;DHT22;4012;48.896;9.192;2023-04-01T03:39:34;9.40;99.90
7934;DHT22;4012;48.896;9.192;2023-04-01T03:42:00;9.40;99.90
7934;DHT22;4012;48.896;9.192;2023-04-01T03:44:29;9.40;99.90
7934;DHT22;4012;48.896;9.192;2023-04-01T03:46:55;9.30;99.90
7934;DHT22;4012;48.896;9.192;2023-04-01T03:49:21;9.30;99.90
7934;DHT22;4012;48.896;9.192;2023-04-01T03:51:46;9.30;99.90
7934;DHT22;4012;48.896;9.192;2023-04-01T03:54:12;9.20;99.90
7934;DHT22;4012;48.896;9.192;2023-04-01T03:56:37;9.10;99.90
7934;DHT22;4012;48.896;9.192;2023-04-01T03:59:05;9.10;99.90
7934;DHT22;4012;48.896;9.192;2023-04-01T04:01:31;9.10;99.90
7934;DHT22;4012;48.896;9.192;2023-04-01T04:03:57;9.10;99.90
7934;DHT22;4012;48.896;9.192;2023-04-01T04:06:23;9.10;99.90
7934;DHT22;4012;48.896;9.192;2023-04-01T04:08:49;9.00;99.90
7934;DHT22;4012;48.896;9.192;2023-04-01T04:11:15;9.00;99.90
7934;DHT22;4012;48.896;9.192;2023-04-01T04:13:41;9.10;99.90
7934;DHT22;4012;48.896;9.192;2023-04-01T04:16:08;9.00;99.90
7934;DHT22;4012;48.896;9.192;2023-04-01T04:18:35;9.00;99.90
7934;DHT22;4012;48.896;9.192;2023-04-01T04:21:02;9.00;99.90
7934;DHT22;4012;48.896;9.192;2023-04-01T04:23:27;9.10;99.90
7934;DHT22;4012;48.896;9.192;2023-04-01T04:26:09;9.10;99.90
7934;DHT22;4012;48.896;9.192;2023-04-01T04:28:35;9.10;99.90
7934;DHT22;4012;48.896;9.192;2023-04-01T04:31:01;9.10;99.90
7934;DHT22;4012;48.896;9.192;2023-04-01T04:33:27;9.20;99.90
7934;DHT22;4012;48.896;9.192;2023-04-01T04:35:56;9.10;99.90
7934;DHT22;4012;48.896;9.192;2023-04-01T04:38:21;9.20;99.90
7934;DHT22;4012;48.896;9.192;2023-04-01T04:40:47;9.10;99.90
7934;DHT22;4012;48.896;9.192;2023-04-01T04:43:14;9.10;99.90
7934;DHT22;4012;48.896;9.192;2023-04-01T04:45:40;9.20;99.90
7934;DHT22;4012;48.896;9.192;2023-04-01T04:48:11;9.20;99.90
7934;DHT22;4012;48.896;9.192;2023-04-01T04:50:41;9.20;99.90
7934;DHT22;4012;48.896;9.192;2023-04-01T04:53:10;9.20;99.90
7934;DHT22;4012;48.896;9.192;2023-04-01T04:55:36;9.20;99.90
7934;DHT22;4012;48.896;9.192;2023-04-01T04:58:01;9.10;99.90
7934;DHT22;4012;48.896;9.192;2023-04-01T05:00:27;9.20;99.90
7934;DHT22;4012;48.896;9.192;2023-04-01T05:02:52;9.10;99.90
7934;DHT22;4012;48.896;9.192;2023-04-01T05:05:18;9.10;99.90
7934;DHT22;4012;48.896;9.192;2023-04-01T05:07:43;9.00;99.90
7934;DHT22;4012;48.896;9.192;2023-04-01T05:10:09;8.90;99.90
7934;DHT22;4012;48.896;9.192;2023-04-01T05:12:35;9.00;99.90
7934;DHT22;4012;48.896;9.192;2023-04-01T05:15:08;9.00;99.90
7934;DHT22;4012;48.896;9.192;2023-04-01T05:17:33;9.00;99.90
7934;DHT22;4012;48.896;9.192;2023-04-01T05:19:59;9.10;99.90
7934;DHT22;4012;48.896;9.192;2023-04-01T05:22:25;9.00;99.90
7934;DHT22;4012;48.896;9.192;2023-04-01T05:24:51;9.10;99.90
7934;DHT22;4012;48.896;9.192;2023-04-01T05:27:17;9.10;99.90
7934;DHT22;4012;48.896;9.192;2023-04-01T05:29:42;9.10;99.90
7934;DHT22;4012;48.896;9.192;2023-04-01T05:32:08;9.10;99.90
7934;DHT22;4012;48.896;9.192;2023-04-01T05:34:33;9.20;99.90
7934;DHT22;4012;48.896;9.192;2023-04-01T05:36:59;9.20;99.90
7934;DHT22;4012;48.896;9.192;2023-04-01T05:39:25;9.30;99.90
7934;DHT22;4012;48.896;9.192;2023-04-01T05:41:50;9.40;99.90
7934;DHT22;4012;48.896;9.192;2023-04-01T05:44:16;9.50;99.90
7934;DHT22;4012;48.896;9.192;2023-04-01T05:46:41;9.40;99.90
7934;DHT22;4012;48.896;9.192;2023-04-01T05:49:07;9.50;99.90
7934;DHT22;4012;48.896;9.192;2023-04-01T05:51:33;9.50;99.90
7934;DHT22;4012;48.896;9.192;2023-04-01T05:53:59;9.60;99.90
7934;DHT22;4012;48.896;9.192;2023-04-01T05:56:24;9.50;99.90
7934;DHT22;4012;48.896;9.192;2023-04-01T05:58:52;9.70;99.90
7934;DHT22;4012;48.896;9.192;2023-04-01T06:01:18;9.80;99.90
7934;DHT22;4012;48.896;9.192;2023-04-01T06:03:44;9.90;99.90
7934;DHT22;4012;48.896;9.192;2023-04-01T06:06:25;10.00;99.90
7934;DHT22;4012;48.896;9.192;2023-04-01T06:08:52;10.10;99.90
7934;DHT22;4012;48.896;9.192;2023-04-01T06:11:31;10.20;99.90
7934;DHT22;4012;48.896;9.192;2023-04-01T06:20:11;10.50;99.90
7934;DHT22;4012;48.896;9.192;2023-04-01T06:25:36;10.70;99.90
7934;DHT22;4012;48.896;9.192;2023-04-01T06:37:21;10.70;99.90
7934;DHT22;4012;48.896;9.192;2023-04-01T06:45:48;10.50;99.90
7934;DHT22;4012;48.896;9.192;2023-04-01T06:48:42;10.30;99.90
7934;DHT22;4012;48.896;9.192;2023-04-01T06:54:18;10.50;99.90
7934;DHT22;4012;48.896;9.192;2023-04-01T06:56:48;10.40;99.90
7934;DHT22;4012;48.896;9.192;2023-04-01T06:59:22;10.50;99.90
7934;DHT22;4012;48.896;9.192;2023-04-01T07:01:56;10.50;99.90
7934;DHT22;4012;48.896;9.192;2023-04-01T07:04:35;10.60;99.90
7934;DHT22;4012;48.896;9.192;2023-04-01T07:09:58;10.60;99.90
7934;DHT22;4012;48.896;9.192;2023-04-01T07:15:04;10.60;99.90
7934;DHT22;4012;48.896;9.192;2023-04-01T07:17:33;10.60;99.90
7934;DHT22;4012;48.896;9.192;2023-04-01T07:20:10;10.90;99.90
7934;DHT22;4012;48.896;9.192;2023-04-01T07:22:40;11.10;99.90
7934;DHT22;4012;48.896;9.192;2023-04-01T07:27:37;11.10;99.90
7934;DHT22;4012;48.896;9.192;2023-04-01T07:30:16;10.90;99.90
7934;DHT22;4012;48.896;9.192;2023-04-01T07:48:30;10.70;99.90
7934;DHT22;4012;48.896;9.192;2023-04-01T07:51:07;10.80;99.90
7934;DHT22;4012;48.896;9.192;2023-04-01T08:02:00;10.90;99.90
7934;DHT22;4012;48.896;9.192;2023-04-01T08:07:22;11.20;99.90
7934;DHT22;4012;48.896;9.192;2023-04-01T08:10:11;11.20;99.90
7934;DHT22;4012;48.896;9.192;2023-04-01T08:20:28;11.30;99.90
7934;DHT22;4012;48.896;9.192;2023-04-01T08:25:44;11.60;99.90
7934;DHT22;4012;48.896;9.192;2023-04-01T08:28:54;11.60;99.90
7934;DHT22;4012;48.896;9.192;2023-04-01T08:34:20;11.60;99.90
7934;DHT22;4012;48.896;9.192;2023-04-01T08:36:55;11.50;99.90
7934;DHT22;4012;48.896;9.192;2023-04-01T08:39:33;11.60;99.90
7934;DHT22;4012;48.896;9.192;2023-04-01T08:53:06;11.20;99.90
7934;DHT22;4012;48.896;9.192;2023-04-01T09:00:57;11.10;99.90
7934;DHT22;4012;48.896;9.192;2023-04-01T09:25:29;11.60;99.90
7934;DHT22;4012;48.896;9.192;2023-04-01T09:28:01;11.90;99.90
7934;DHT22;4012;48.896;9.192;2023-04-01T09:36:45;12.40;99.90
7934;DHT22;4012;48.896;9.192;2023-04-01T09:44:54;12.30;99.90
7934;DHT22;4012;48.896;9.192;2023-04-01T09:47:50;11.80;99.90
7934;DHT22;4012;48.896;9.192;2023-04-01T09:59:28;11.90;99.90
7934;DHT22;4012;48.896;9.192;2023-04-01T10:11:21;11.70;99.90
7934;DHT22;4012;48.896;9.192;2023-04-01T10:14:19;11.70;99.90
7934;DHT22;4012;48.896;9.192;2023-04-01T10:25:34;12.00;99.90
7934;DHT22;4012;48.896;9.192;2023-04-01T10:28:21;11.90;99.90
7934;DHT22;4012;48.896;9.192;2023-04-01T10:39:19;11.80;99.90
7934;DHT22;4012;48.896;9.192;2023-04-01T10:47:48;12.00;99.90
7934;DHT22;4012;48.896;9.192;2023-04-01T10:53:20;11.80;99.90
7934;DHT22;4012;48.896;9.192;2023-04-01T10:58:49;11.80;99.90
7934;DHT22;4012;48.896;9.192;2023-04-01T11:26:46;12.00;99.90
7934;DHT22;4012;48.896;9.192;2023-04-01T11:32:34;12.20;99.90
7934;DHT22;4012;48.896;9.192;2023-04-01T11:37:49;12.30;99.90
7934;DHT22;4012;48.896;9.192;2023-04-01T11:40:41;12.20;99.90
7934;DHT22;4012;48.896;9.192;2023-04-01T11:43:47;12.50;99.90
7934;DHT22;4012;48.896;9.192;2023-04-01T11:46:37;12.40;99.90
7934;DHT22;4012;48.896;9.192;2023-04-01T12:03:48;12.60;99.90
7934;DHT22;4012;48.896;9.192;2023-04-01T12:06:25;12.70;99.90
7934;DHT22;4012;48.896;9.192;2023-04-01T12:16:53;12.30;99.90
7934;DHT22;4012;48.896;9.192;2023-04-01T12:30:18;12.90;99.90
7934;DHT22;4012;48.896;9.192;2023-04-01T12:41:21;12.80;99.90
7934;DHT22;4012;48.896;9.192;2023-04-01T12:43:59;12.80;99.90
7934;DHT22;4012;48.896;9.192;2023-04-01T12:54:45;12.60;99.90
7934;DHT22;4012;48.896;9.192;2023-04-01T13:00:18;12.60;99.90
7934;DHT22;4012;48.896;9.192;2023-04-01T13:14:56;12.20;99.90
7934;DHT22;4012;48.896;9.192;2023-04-01T13:17:54;12.00;99.90
7934;DHT22;4012;48.896;9.192;2023-04-01T13:26:57;11.70;99.90
7934;DHT22;4012;48.896;9.192;2023-04-01T13:29:25;11.60;99.90
7934;DHT22;4012;48.896;9.192;2023-04-01T13:34:54;11.20;99.90
7934;DHT22;4012;48.896;9.192;2023-04-01T13:48:24;11.40;99.90
7934;DHT22;4012;48.896;9.192;2023-04-01T13:59:40;11.30;99.90
7934;DHT22;4012;48.896;9.192;2023-04-01T14:04:58;11.30;99.90
7934;DHT22;4012;48.896;9.192;2023-04-01T14:07:50;11.30;99.90
7934;DHT22;4012;48.896;9.192;2023-04-01T14:13:12;11.40;99.90
7934;DHT22;4012;48.896;9.192;2023-04-01T14:24:04;11.50;99.90
7934;DHT22;4012;48.896;9.192;2023-04-01T14:29:42;11.70;99.90
7934;DHT22;4012;48.896;9.192;2023-04-01T14:41:06;11.70;99.90
7934;DHT22;4012;48.896;9.192;2023-04-01T14:49:22;11.30;99.90
7934;DHT22;4012;48.896;9.192;2023-04-01T14:51:50;11.30;99.90
7934;DHT22;4012;48.896;9.192;2023-04-01T14:54:31;11.10;99.90
7934;DHT22;4012;48.896;9.192;2023-04-01T14:57:14;11.30;99.90
7934;DHT22;4012;48.896;9.192;2023-04-01T14:59:49;11.40;99.90
7934;DHT22;4012;48.896;9.192;2023-04-01T15:11:10;11.60;99.90
7934;DHT22;4012;48.896;9.192;2023-04-01T15:16:21;12.00;99.90
7934;DHT22;4012;48.896;9.192;2023-04-01T15:25:00;11.80;99.90
7934;DHT22;4012;48.896;9.192;2023-04-01T15:41:16;11.90;99.90
7934;DHT22;4012;48.896;9.192;2023-04-01T15:43:49;11.70;99.90
7934;DHT22;4012;48.896;9.192;2023-04-01T15:46:41;11.50;99.90
7934;DHT22;4012;48.896;9.192;2023-04-01T16:00:25;11.70;99.90
7934;DHT22;4012;48.896;9.192;2023-04-01T16:03:15;11.50;99.90
7934;DHT22;4012;48.896;9.192;2023-04-01T16:14:26;11.60;99.90
7934;DHT22;4012;48.896;9.192;2023-04-01T16:22:39;11.50;99.90
7934;DHT22;4012;48.896;9.192;2023-04-01T16:25:20;11.30;99.90
7934;DHT22;4012;48.896;9.192;2023-04-01T16:30:27;11.30;99.90
7934;DHT22;4012;48.896;9.192;2023-04-01T16:41:50;11.40;99.90
7934;DHT22;4012;48.896;9.192;2023-04-01T16:44:23;11.40;99.90
7934;DHT22;4012;48.896;9.192;2023-04-01T16:47:14;11.40;99.90
7934;DHT22;4012;48.896;9.192;2023-04-01T16:59:01;11.40;99.90
7934;DHT22;4012;48.896;9.192;2023-04-01T17:01:44;11.40;99.90
7934;DHT22;4012;48.896;9.192;2023-04-01T17:04:28;11.50;99.90
7934;DHT22;4012;48.896;9.192;2023-04-01T17:07:01;11.50;99.90
7934;DHT22;4012;48.896;9.192;2023-04-01T17:09:34;11.50;99.90
7934;DHT22;4012;48.896;9.192;2023-04-01T17:17:45;11.60;99.90
7934;DHT22;4012;48.896;9.192;2023-04-01T17:20:26;11.60;99.90
7934;DHT22;4012;48.896;9.192;2023-04-01T17:23:03;11.60;99.90
7934;DHT22;4012;48.896;9.192;2023-04-01T17:25:58;11.50;99.90
7934;DHT22;4012;48.896;9.192;2023-04-01T17:31:37;11.50;99.90
7934;DHT22;4012;48.896;9.192;2023-04-01T17:37:28;11.40;99.90
7934;DHT22;4012;48.896;9.192;2023-04-01T17:45:57;11.20;99.90
7934;DHT22;4012;48.896;9.192;2023-04-01T17:48:38;11.20;99.90
7934;DHT22;4012;48.896;9.192;2023-04-01T17:51:16;11.20;99.90
7934;DHT22;4012;48.896;9.192;2023-04-01T17:59:36;11.20;99.90
7934;DHT22;4012;48.896;9.192;2023-04-01T18:02:21;11.00;99.90
7934;DHT22;4012;48.896;9.192;2023-04-01T18:10:31;11.00;99.90
7934;DHT22;4012;48.896;9.192;2023-04-01T18:13:23;11.00;99.90
7934;DHT22;4012;48.896;9.192;2023-04-01T18:21:50;10.90;99.90
7934;DHT22;4012;48.896;9.192;2023-04-01T18:27:15;10.80;99.90
7934;DHT22;4012;48.896;9.192;2023-04-01T18:29:41;10.90;99.90
7934;DHT22;4012;48.896;9.192;2023-04-01T18:43:02;10.70;99.90
7934;DHT22;4012;48.896;9.192;2023-04-01T18:45:58;10.70;99.90
7934;DHT22;4012;48.896;9.192;2023-04-01T18:51:48;10.60;99.90
7934;DHT22;4012;48.896;9.192;2023-04-01T18:54:29;10.50;99.90
7934;DHT22;4012;48.896;9.192;2023-04-01T18:57:15;10.40;99.90
7934;DHT22;4012;48.896;9.192;2023-04-01T19:00:05;10.50;99.90
7934;DHT22;4012;48.896;9.192;2023-04-01T19:02:37;10.50;99.90
7934;DHT22;4012;48.896;9.192;2023-04-01T19:05:19;10.50;99.90
7934;DHT22;4012;48.896;9.192;2023-04-01T19:07:49;10.50;99.90
7934;DHT22;4012;48.896;9.192;2023-04-01T19:10:39;10.40;99.90
7934;DHT22;4012;48.896;9.192;2023-04-01T19:18:36;10.20;99.90
7934;DHT22;4012;48.896;9.192;2023-04-01T19:21:16;10.10;99.90
7934;DHT22;4012;48.896;9.192;2023-04-01T19:26:39;10.00;99.90
7934;DHT22;4012;48.896;9.192;2023-04-01T19:32:02;9.80;99.90
7934;DHT22;4012;48.896;9.192;2023-04-01T19:34:52;9.80;99.90
7934;DHT22;4012;48.896;9.192;2023-04-01T19:42:40;9.70;99.90
7934;DHT22;4012;48.896;9.192;2023-04-01T19:53:14;9.50;99.90
7934;DHT22;4012;48.896;9.192;2023-04-01T19:55:48;9.50;99.90
7934;DHT22;4012;48.896;9.192;2023-04-01T19:58:31;9.40;99.90
7934;DHT22;4012;48.896;9.192;2023-04-01T20:01:03;9.40;99.90
7934;DHT22;4012;48.896;9.192;2023-04-01T20:03:39;9.40;99.90
7934;DHT22;4012;48.896;9.192;2023-04-01T20:15:38;9.50;99.90
7934;DHT22;4012;48.896;9.192;2023-04-01T20:21:46;9.60;99.90
7934;DHT22;4012;48.896;9.192;2023-04-01T20:23:56;9.60;99.90
7934;DHT22;4012;48.896;9.192;2023-04-01T20:26:34;9.60;99.90
7934;DHT22;4012;48.896;9.192;2023-04-01T20:34:49;9.80;99.90
7934;DHT22;4012;48.896;9.192;2023-04-01T20:37:38;9.80;99.90
7934;DHT22;4012;48.896;9.192;2023-04-01T20:51:33;9.80;99.90
7934;DHT22;4012;48.896;9.192;2023-04-01T20:57:09;9.90;99.90
7934;DHT22;4012;48.896;9.192;2023-04-01T20:59:58;9.80;99.90
7934;DHT22;4012;48.896;9.192;2023-04-01T21:08:13;9.90;99.90
7934;DHT22;4012;48.896;9.192;2023-04-01T21:10:46;9.90;99.90
7934;DHT22;4012;48.896;9.192;2023-04-01T21:21:21;9.90;99.90
7934;DHT22;4012;48.896;9.192;2023-04-01T21:30:12;9.70;99.90
7934;DHT22;4012;48.896;9.192;2023-04-01T21:33:01;9.80;99.90
7934;DHT22;4012;48.896;9.192;2023-04-01T21:36:06;9.80;99.90
7934;DHT22;4012;48.896;9.192;2023-04-01T21:44:32;9.80;99.90
7934;DHT22;4012;48.896;9.192;2023-04-01T21:47:30;9.80;99.90
7934;DHT22;4012;48.896;9.192;2023-04-01T21:59:07;9.80;99.90
7934;DHT22;4012;48.896;9.192;2023-04-01T22:07:24;9.60;99.90
7934;DHT22;4012;48.896;9.192;2023-04-01T22:12:43;9.70;99.90
7934;DHT22;4012;48.896;9.192;2023-04-01T22:20:59;9.80;99.90
7934;DHT22;4012;48.896;9.192;2023-04-01T22:37:37;9.80;99.90
7934;DHT22;4012;48.896;9.192;2023-04-01T22:43:08;9.90;99.90
7934;DHT22;4012;48.896;9.192;2023-04-01T22:51:11;9.90;99.90
7934;DHT22;4012;48.896;9.192;2023-04-01T22:56:35;9.80;99.90
7934;DHT22;4012;48.896;9.192;2023-04-01T22:59:35;9.80;99.90
7934;DHT22;4012;48.896;9.192;2023-04-01T23:02:17;9.80;99.90
7934;DHT22;4012;48.896;9.192;2023-04-01T23:04:47;9.80;99.90
7934;DHT22;4012;48.896;9.192;2023-04-01T23:10:05;9.80;99.90
7934;DHT22;4012;48.896;9.192;2023-04-01T23:12:38;9.80;99.90
7934;DHT22;4012;48.896;9.192;2023-04-01T23:15:04;9.70;99.90
7934;DHT22;4012;48.896;9.192;2023-04-01T23:20:33;9.70;99.90
7934;DHT22;4012;48.896;9.192;2023-04-01T23:23:20;9.80;99.90
7934;DHT22;4012;48.896;9.192;2023-04-01T23:28:47;9.70;99.90
7934;DHT22;4012;48.896;9.192;2023-04-01T23:31:26;9.80;99.90
7934;DHT22;4012;48.896;9.192;2023-04-01T23:33:58;9.80;99.90
7934;DHT22;4012;48.896;9.192;2023-04-01T23:36:24;9.80;99.90
7934;DHT22;4012;48.896;9.192;2023-04-01T23:38:50;9.70;99.90
7934;DHT22;4012;48.896;9.192;2023-04-01T23:41:22;9.70;99.90
7934;DHT22;4012;48.896;9.192;2023-04-01T23:44:00;9.70;99.90
7934;DHT22;4012;48.896;9.192;2023-04-01T23:46:26;9.70;99.90
7934;DHT22;4012;48.896;9.192;2023-04-01T23:48:55;9.70;99.90
7934;DHT22;4012;48.896;9.192;2023-04-01T23:51:29;9.70;99.90
7934;DHT22;4012;48.896;9.192;2023-04-01T23:54:10;9.70;99.90
7934;DHT22;4012;48.896;9.192;2023-04-01T23:56:46;9.70;99.90
7934;DHT22;4012;48.896;9.192;2023-04-01T23:59:24;9.60;99.90
